Time;durP1;ratioP1;P1;durP2;ratioP2;P2;SDS_P1;SDS_P2;PMS_P1;PMS_P2;Temp;Humidity;BMP_temperature;BMP_pressure;BME280_temperature;BME280_humidity;BME280_pressure;Samples;Min_cycle;Max_cycle;Signal;HPM_P1;HPM_P2
2023/06/26 00:04:33;;;;;;;7.47;5.47;;;25.20;1.00;;;;;;20628216;28;20050;-39
2023/06/26 00:14:54;;;;;;;6.90;5.57;;;24.90;1.00;;;;;;20641209;28;20138;-39
2023/06/26 00:25:16;;;;;;;5.90;5.10;;;24.60;1.00;;;;;;20636307;28;20046;-39
2023/06/26 00:35:37;;;;;;;7.43;5.40;;;24.40;1.00;;;;;;20632250;28;20068;-39
2023/06/26 00:45:58;;;;;;;7.28;5.75;;;24.10;1.00;;;;;;20623059;28;20141;-41
2023/06/26 00:56:20;;;;;;;5.75;4.68;;;24.00;1.00;;;;;;20639730;28;20044;-41
2023/06/26 01:06:42;;;;;;;7.82;5.35;;;23.90;1.00;;;;;;20624851;28;20129;-42
2023/06/26 01:17:04;;;;;;;5.35;4.40;;;23.60;1.00;;;;;;20646161;28;20245;-42
2023/06/26 01:27:26;;;;;;;7.05;4.80;;;23.20;1.00;;;;;;20631074;28;20280;-41
2023/06/26 01:37:48;;;;;;;8.77;4.47;;;23.00;1.00;;;;;;20645269;28;20110;-42
2023/06/26 01:48:12;;;;;;;9.85;4.72;;;22.70;1.00;;;;;;20637778;28;20123;-42
2023/06/26 01:58:35;;;;;;;7.50;4.20;;;22.50;1.00;;;;;;20615271;28;20048;-41
2023/06/26 02:08:56;;;;;;;8.32;4.07;;;22.20;1.00;;;;;;20612076;28;20137;-41
2023/06/26 02:19:21;;;;;;;9.82;4.28;;;22.10;1.00;;;;;;20636279;28;21485;-41
2023/06/26 02:29:42;;;;;;;8.43;4.00;;;21.90;1.00;;;;;;20620190;28;20030;-41
2023/06/26 02:40:05;;;;;;;10.70;4.80;;;21.80;1.00;;;;;;20609080;28;20124;-41
2023/06/26 02:50:26;;;;;;;8.13;4.65;;;21.60;1.00;;;;;;20636278;28;20079;-41
2023/06/26 03:00:48;;;;;;;9.50;4.47;;;21.60;1.00;;;;;;20665960;28;20049;-40
2023/06/26 03:11:10;;;;;;;8.32;4.03;;;21.50;1.00;;;;;;20662533;28;20468;-40
2023/06/26 03:21:32;;;;;;;11.30;4.40;;;21.20;1.00;;;;;;20655700;28;20125;-41
2023/06/26 03:31:53;;;;;;;16.70;4.85;;;21.00;1.00;;;;;;20659927;28;20071;-40
2023/06/26 03:42:15;;;;;;;15.40;5.82;;;20.90;1.00;;;;;;20647680;28;20053;-40
2023/06/26 03:52:36;;;;;;;13.05;5.03;;;20.70;1.00;;;;;;20630767;28;20603;-41
2023/06/26 04:02:58;;;;;;;10.52;4.13;;;20.70;1.00;;;;;;20625023;28;20607;-41
2023/06/26 04:13:19;;;;;;;9.27;4.80;;;20.50;1.00;;;;;;20659227;28;20157;-41
2023/06/26 04:23:41;;;;;;;11.75;5.13;;;20.50;1.00;;;;;;20650190;28;20060;-40
2023/06/26 04:34:02;;;;;;;7.93;3.97;;;20.30;1.00;;;;;;20667906;28;20530;-40
2023/06/26 04:44:23;;;;;;;9.20;3.95;;;20.20;1.00;;;;;;20649781;28;20053;-41
2023/06/26 04:54:45;;;;;;;7.82;3.67;;;20.10;1.00;;;;;;20658654;28;20523;-40
2023/06/26 05:05:06;;;;;;;11.32;3.75;;;20.00;1.00;;;;;;20648837;28;20157;-40
2023/06/26 05:15:27;;;;;;;7.78;3.45;;;19.90;1.00;;;;;;20657954;28;20054;-40
2023/06/26 05:25:50;;;;;;;5.22;2.72;;;19.70;1.00;;;;;;20645003;28;20045;-41
2023/06/26 05:36:13;;;;;;;7.90;2.97;;;19.80;1.00;;;;;;20635631;28;20124;-40
2023/06/26 05:46:34;;;;;;;6.80;2.88;;;20.00;1.00;;;;;;20631770;28;20483;-41
2023/06/26 05:56:59;;;;;;;5.88;2.15;;;20.30;1.00;;;;;;20636350;28;20072;-40
2023/06/26 06:07:21;;;;;;;5.93;2.35;;;20.60;1.00;;;;;;20651676;28;20148;-40
2023/06/26 06:17:43;;;;;;;5.93;2.60;;;20.70;1.00;;;;;;20650568;28;20061;-40
2023/06/26 06:28:05;;;;;;;6.55;3.05;;;20.70;1.00;;;;;;20648135;28;20140;-40
2023/06/26 06:38:26;;;;;;;7.70;3.40;;;20.80;1.00;;;;;;20655861;28;20129;-41
2023/06/26 06:48:48;;;;;;;9.25;2.55;;;20.60;1.00;;;;;;20650863;28;20045;-41
2023/06/26 06:59:09;;;;;;;5.05;1.88;;;20.70;1.00;;;;;;20635774;28;20288;-40
2023/06/26 07:09:30;;;;;;;5.13;1.95;;;20.70;1.00;;;;;;20647111;28;20125;-41
2023/06/26 07:19:52;;;;;;;4.63;1.70;;;20.70;1.00;;;;;;20657761;28;20495;-40
2023/06/26 07:30:13;;;;;;;5.35;2.08;;;20.80;1.00;;;;;;20661532;28;20062;-40
2023/06/26 07:40:34;;;;;;;6.43;2.10;;;20.80;1.00;;;;;;20649867;28;20650;-41
2023/06/26 07:50:56;;;;;;;4.75;1.80;;;20.90;1.00;;;;;;20634039;28;20156;-41
2023/06/26 08:01:17;;;;;;;5.88;1.65;;;21.10;1.00;;;;;;20669648;28;20049;-41
2023/06/26 08:11:39;;;;;;;5.45;1.45;;;21.20;1.00;;;;;;20667407;28;20511;-41
2023/06/26 08:22:00;;;;;;;5.43;1.63;;;21.20;1.00;;;;;;20673779;28;20065;-40
2023/06/26 08:32:21;;;;;;;5.45;1.83;;;21.30;1.00;;;;;;20663730;28;20654;-41
2023/06/26 08:42:43;;;;;;;4.13;1.60;;;21.30;1.00;;;;;;20664416;28;20074;-41
2023/06/26 08:53:18;;;;;;;6.20;1.70;;;21.50;1.00;;;;;;20920101;23;20045;-83
2023/06/26 09:03:41;;;;;;;7.28;1.63;;;21.60;1.00;;;;;;20762266;28;20052;-83
2023/06/26 09:14:05;;;;;;;4.68;1.70;;;21.60;1.00;;;;;;20746043;28;20052;-83
2023/06/26 09:24:27;;;;;;;5.03;1.70;;;21.60;1.00;;;;;;20768787;28;20230;-81
2023/06/26 09:34:48;;;;;;;2.72;1.10;;;21.80;1.00;;;;;;20725623;28;20045;-81
2023/06/26 09:45:18;;;;;;;2.72;1.20;;;22.00;1.00;;;;;;20736858;28;20044;-82
2023/06/26 09:55:43;;;;;;;4.50;1.27;;;22.10;1.00;;;;;;20740769;28;20045;-81
2023/06/26 10:06:06;;;;;;;4.38;1.17;;;22.40;1.00;;;;;;20731599;28;20048;-81
2023/06/26 10:16:31;;;;;;;4.38;1.40;;;22.50;1.00;;;;;;20775293;28;20152;-80
2023/06/26 10:26:59;;;;;;;4.35;1.23;;;22.80;1.00;;;;;;20809261;28;20135;-80
2023/06/26 10:37:20;;;;;;;8.03;1.47;;;22.80;1.00;;;;;;20761123;23;20683;-40
2023/06/26 10:47:45;;;;;;;3.10;1.25;;;23.30;1.00;;;;;;20695684;28;20511;-40
2023/06/26 10:58:32;;;;;;;3.78;1.25;;;22.90;1.00;;;;;;20694578;28;20588;-40
2023/06/26 11:08:59;;;;;;;3.55;1.10;;;22.60;1.00;;;;;;20696915;28;20061;-40
2023/06/26 11:19:21;;;;;;;4.13;0.90;;;22.50;1.00;;;;;;20707420;28;20053;-40
2023/06/26 11:29:51;;;;;;;3.75;0.90;;;22.70;1.00;;;;;;20713879;28;20065;-40
2023/06/26 11:40:19;;;;;;;3.88;0.90;;;22.80;1.00;;;;;;20682751;28;20120;-40
2023/06/26 11:50:40;;;;;;;3.85;0.80;;;23.00;1.00;;;;;;20713722;28;20045;-40
2023/06/26 12:01:02;;;;;;;3.97;0.90;;;23.00;1.00;;;;;;20711229;28;20068;-40
2023/06/26 12:11:24;;;;;;;3.50;0.80;;;23.00;1.00;;;;;;20690457;28;20073;-41
2023/06/26 12:21:48;;;;;;;3.75;0.80;;;23.00;1.00;;;;;;20692989;28;20156;-41
2023/06/26 12:32:10;;;;;;;1.95;0.80;;;23.30;1.00;;;;;;20699408;28;20379;-40
2023/06/26 12:42:33;;;;;;;6.70;1.17;;;23.30;1.00;;;;;;20711145;28;20061;-40
2023/06/26 12:52:54;;;;;;;3.88;1.00;;;23.30;1.00;;;;;;20711418;28;20042;-40
2023/06/26 13:03:16;;;;;;;23.00;3.13;;;23.30;1.00;;;;;;20708221;28;20163;-40
2023/06/26 13:13:37;;;;;;;8.75;1.90;;;23.70;1.00;;;;;;20707676;28;20069;-40
2023/06/26 13:23:59;;;;;;;4.32;1.05;;;23.50;1.00;;;;;;20704184;28;20079;-40
2023/06/26 13:34:27;;;;;;;4.25;1.00;;;23.50;1.00;;;;;;20705723;28;20041;-41
2023/06/26 13:44:49;;;;;;;3.28;1.00;;;23.40;1.00;;;;;;20702019;28;20052;-41
2023/06/26 13:55:10;;;;;;;2.15;0.77;;;23.50;1.00;;;;;;20699585;28;20029;-41
2023/06/26 14:05:36;;;;;;;2.70;0.82;;;23.60;1.00;;;;;;20700740;28;20065;-40
2023/06/26 14:15:57;;;;;;;3.17;1.02;;;23.70;1.00;;;;;;20694859;28;20069;-40
2023/06/26 14:26:18;;;;;;;2.25;1.00;;;23.60;1.00;;;;;;20699256;28;20156;-41
2023/06/26 14:36:40;;;;;;;2.50;0.90;;;23.30;1.00;;;;;;20695939;28;20441;-41
2023/06/26 14:47:01;;;;;;;2.92;1.25;;;23.50;1.00;;;;;;20712993;28;20052;-41
2023/06/26 14:57:23;;;;;;;2.97;1.00;;;23.30;1.00;;;;;;20706845;28;20064;-41
2023/06/26 15:07:44;;;;;;;2.72;0.77;;;23.40;1.00;;;;;;20706946;28;20473;-41
2023/06/26 15:18:06;;;;;;;5.22;1.17;;;23.20;1.00;;;;;;20713518;28;20045;-41
2023/06/26 15:28:27;;;;;;;2.47;1.10;;;22.80;1.00;;;;;;20706775;28;20259;-41
2023/06/26 15:38:48;;;;;;;3.42;0.75;;;22.80;1.00;;;;;;20716742;28;20049;-41
2023/06/26 15:49:10;;;;;;;2.50;0.93;;;22.60;1.00;;;;;;20716569;28;20133;-41
2023/06/26 15:59:31;;;;;;;2.70;1.20;;;22.20;1.00;;;;;;20705678;28;20717;-41
2023/06/26 16:09:52;;;;;;;2.40;0.95;;;22.30;1.00;;;;;;20695707;28;20080;-41
2023/06/26 16:20:14;;;;;;;4.38;1.58;;;22.20;1.00;;;;;;20705424;28;20493;-41
2023/06/26 16:30:35;;;;;;;5.47;1.10;;;22.20;1.00;;;;;;20706046;28;20204;-41
2023/06/26 16:40:57;;;;;;;2.80;1.10;;;22.10;1.00;;;;;;20713325;28;20389;-41
2023/06/26 16:51:18;;;;;;;4.40;1.08;;;21.70;1.00;;;;;;20706249;28;20042;-41
2023/06/26 17:01:39;;;;;;;2.67;1.10;;;21.60;1.00;;;;;;20709507;28;20084;-41
2023/06/26 17:12:01;;;;;;;2.45;1.13;;;21.50;1.00;;;;;;20710297;28;20139;-41
2023/06/26 17:22:23;;;;;;;5.93;1.40;;;21.30;1.00;;;;;;20708165;28;20049;-41
2023/06/26 17:32:45;;;;;;;3.70;1.23;;;21.40;1.00;;;;;;20705309;28;20081;-41
2023/06/26 17:43:06;;;;;;;5.22;1.33;;;21.40;1.00;;;;;;20712073;28;20517;-41
2023/06/26 17:53:27;;;;;;;3.67;1.38;;;21.00;1.00;;;;;;20712108;28;20072;-41
2023/06/26 18:03:49;;;;;;;6.43;1.77;;;21.00;1.00;;;;;;20706977;28;20084;-41
2023/06/26 18:14:11;;;;;;;2.72;1.40;;;20.80;1.00;;;;;;20708777;28;20041;-41
2023/06/26 18:24:32;;;;;;;3.85;1.63;;;20.50;1.00;;;;;;20705585;28;20598;-41
2023/06/26 18:34:54;;;;;;;4.45;1.50;;;20.40;1.00;;;;;;20704901;28;20080;-41
2023/06/26 18:45:15;;;;;;;5.95;1.90;;;20.30;1.00;;;;;;20707021;28;20045;-41
2023/06/26 18:55:36;;;;;;;4.32;1.60;;;20.00;1.00;;;;;;20704607;28;20055;-41
2023/06/26 19:05:59;;;;;;;5.50;1.83;;;19.80;1.00;;;;;;20702876;28;20646;-41
2023/06/26 19:16:20;;;;;;;7.05;2.08;;;19.70;1.00;;;;;;20705099;28;20030;-41
2023/06/26 19:26:41;;;;;;;3.38;1.50;;;19.50;1.00;;;;;;20703294;28;20076;-38
2023/06/26 19:37:03;;;;;;;6.40;2.35;;;19.20;1.00;;;;;;20714867;28;20076;-40
2023/06/26 19:47:24;;;;;;;4.43;1.77;;;19.10;1.00;;;;;;20696656;28;20053;-40
2023/06/26 19:57:46;;;;;;;3.42;1.63;;;19.00;1.00;;;;;;20705989;28;20038;-41
2023/06/26 20:08:07;;;;;;;6.20;2.50;;;18.80;1.00;;;;;;20710391;28;20501;-40
2023/06/26 20:18:29;;;;;;;4.03;2.30;;;18.70;1.00;;;;;;20689282;28;20045;-41
2023/06/26 20:28:50;;;;;;;8.48;2.60;;;18.70;1.00;;;;;;20703791;28;20108;-41
2023/06/26 20:39:11;;;;;;;5.55;1.90;;;18.60;1.00;;;;;;20705480;28;20041;-41
2023/06/26 20:49:33;;;;;;;4.32;2.08;;;18.60;1.00;;;;;;20708051;28;20068;-41
2023/06/26 20:59:54;;;;;;;4.40;2.20;;;18.40;1.00;;;;;;20708462;28;20061;-40
2023/06/26 21:10:18;;;;;;;8.65;2.67;;;18.40;1.00;;;;;;20703881;28;20064;-41
2023/06/26 21:20:40;;;;;;;8.23;2.42;;;18.30;1.00;;;;;;20703488;28;20033;-40
2023/06/26 21:31:01;;;;;;;5.63;2.75;;;18.30;1.00;;;;;;20700219;28;20179;-40
2023/06/26 21:41:22;;;;;;;7.97;2.53;;;18.20;1.00;;;;;;20700142;28;20049;-40
2023/06/26 21:51:44;;;;;;;6.65;2.78;;;18.10;1.00;;;;;;20696468;28;20038;-40
2023/06/26 22:02:05;;;;;;;6.22;2.70;;;17.90;1.00;;;;;;20692097;28;20072;-40
2023/06/26 22:12:27;;;;;;;5.00;2.53;;;17.80;1.00;;;;;;20694986;28;20149;-40
2023/06/26 22:22:48;;;;;;;6.70;2.97;;;17.70;1.00;;;;;;20694920;28;20045;-40
2023/06/26 22:33:10;;;;;;;5.93;2.67;;;17.60;1.00;;;;;;20691370;28;20366;-40
2023/06/26 22:43:31;;;;;;;7.45;2.78;;;17.50;1.00;;;;;;20698739;28;20120;-41
2023/06/26 22:53:52;;;;;;;4.70;2.40;;;17.50;1.00;;;;;;20693718;28;20041;-40
2023/06/26 23:04:13;;;;;;;4.70;2.50;;;17.30;1.00;;;;;;20701670;28;22151;-41
2023/06/26 23:14:35;;;;;;;6.00;2.90;;;17.20;1.00;;;;;;20708186;28;20125;-41
2023/06/26 23:24:57;;;;;;;5.80;2.83;;;17.20;1.00;;;;;;20704014;28;20583;-40
2023/06/26 23:35:18;;;;;;;6.70;2.90;;;17.20;1.00;;;;;;20698437;28;20041;-40
2023/06/26 23:45:41;;;;;;;8.48;3.00;;;17.30;1.00;;;;;;20709024;28;20072;-40
2023/06/26 23:56:03;;;;;;;4.55;2.80;;;17.30;1.00;;;;;;20703611;28;20117;-40
